Flight Track Log - Related Links

Times and Time Zones

All times are in EDT time to prevent confusion due to time zone crossing. See the JBU56 flight status page for this flight to view local times or setup timezone preferences in your user account.


Time Position Orientation Groundspeed Altitude Reporting Facility
EDT Latitude Longitude Course Direction KTS MPH feet Rate Location/Type
Wed 09:13:59 AM 38.9667 -77.5000 90° East 173 199 2,300  Level Potomac TRACON
Wed 09:14:54 AM 39.0167 -77.5167 345° North 198 228 4,400 2,400 Climbing Potomac TRACON
Wed 09:15:54 AM 39.0833 -77.5333 349° North 272 313 6,900 2,895 Climbing Potomac TRACON
Wed 09:16:48 AM 39.1333 -77.4667 46° Northeast 298 343 9,900 1,289 Climbing Potomac TRACON
Wed 09:18:00 AM 39.3045 -76.8442 78° East  Level Estimated
Wed 09:18:23 AM 39.1428 -77.3178 85° East 283 326 10,100  Level Washington Center
Wed 09:19:00 AM 39.3637 -76.7410 90° East  Level Estimated
Wed 09:19:23 AM 39.1236 -77.1997 102° East 299 344 11,900  Level Washington Center
Wed 09:20:24 AM 39.1042 -77.0869 102° East 326 375 13,700 2,331 Climbing Washington Center
Wed 09:21:24 AM 39.0911 -76.9503 97° East 364 419 16,600 2,479 Climbing Washington Center
Wed 09:22:25 AM 39.1031 -76.8086 84° East 379 436 18,700 1,296 Climbing Washington Center
Wed 09:27:53 AM 39.1780 -75.9990 84° East 100 115 25,000 1,140 Climbing FlightAware ADS-B
Wed 09:28:28 AM 39.1920 -75.9090 79° East 444 511 25,600 720 Climbing FlightAware ADS-B
Wed 09:28:43 AM 39.2030 -75.8790 65° Northeast 444 511 25,600  Level FlightAware ADS-B
Wed 09:29:23 AM 39.2320 -75.7970 65° Northeast 444 511 25,600 2,182 Level FlightAware ADS-B
Wed 09:29:38 AM 39.2790 -75.7690 25° Northeast 440 506 27,600 3,867 Climbing FlightAware ADS-B
Wed 09:30:08 AM 39.3260 -75.7070 46° Northeast 448 516 28,500 1,938 Climbing FlightAware ADS-B
Wed 09:30:43 AM 39.3760 -75.6420 45° Northeast 441 507 29,700 1,373 Climbing FlightAware ADS-B
Wed 09:31:31 AM 39.4360 -75.5620 46° Northeast 439 505 30,400 500 Climbing FlightAware ADS-B
Wed 09:32:07 AM 39.4790 -75.5040 46° Northeast 439 505 30,400  Level FlightAware ADS-B
Wed 09:32:42 AM 39.5210 -75.4480 46° Northeast 439 505 30,400  Level FlightAware ADS-B
Wed 09:33:16 AM 39.5620 -75.3930 46° Northeast 439 505 30,400 507 Level FlightAware ADS-B
Wed 09:33:53 AM 39.6550 -75.2780 44° Northeast 439 505 31,000 493 Climbing FlightAware ADS-B
Wed 09:34:29 AM 39.7030 -75.2100 47° Northeast 468 539 31,000  Level FlightAware ADS-B
Wed 09:35:10 AM 39.7590 -75.1300 48° Northeast 462 532 31,000  Level FlightAware ADS-B
Wed 09:35:46 AM 39.8040 -75.0680 47° Northeast 462 532 31,000  Level FlightAware ADS-B
Wed 09:36:22 AM 39.8480 -75.0060 47° Northeast 462 532 31,000  Level FlightAware ADS-B
Wed 09:36:58 AM 39.8930 -74.9440 47° Northeast 462 532 31,000  Level FlightAware ADS-B
Wed 09:37:34 AM 39.9380 -74.8810 47° Northeast 462 532 31,000  Level FlightAware ADS-B
Wed 09:38:13 AM 39.9860 -74.8140 47° Northeast 462 532 31,000  Level FlightAware ADS-B
Wed 09:38:48 AM 40.0870 -74.6650 48° Northeast 462 532 31,000  Level FlightAware ADS-B
Wed 09:39:18 AM 40.1240 -74.6090 49° Northeast 472 543 31,000  Level FlightAware ADS-B
Wed 09:39:57 AM 40.1720 -74.5370 49° Northeast 472 543 31,000  Level FlightAware ADS-B
Wed 09:40:33 AM 40.2150 -74.4710 50° Northeast 472 543 31,000  Level FlightAware ADS-B
Wed 09:41:09 AM 40.2590 -74.4050 49° Northeast 472 543 31,000  Level FlightAware ADS-B
Wed 09:41:45 AM 40.3030 -74.3390 49° Northeast 472 543 31,000  Level FlightAware ADS-B
Wed 09:42:21 AM 40.3470 -74.2730 49° Northeast 472 543 31,000  Level FlightAware ADS-B
Wed 09:42:57 AM 40.3910 -74.2070 49° Northeast 472 543 31,000  Level FlightAware ADS-B
Wed 09:43:31 AM 40.4320 -74.1440 49° Northeast 472 543 31,000  Level FlightAware ADS-B
Wed 09:44:08 AM 40.4770 -74.0760 49° Northeast 472 543 31,000  Level FlightAware ADS-B
Wed 09:44:44 AM 40.5210 -74.0100 49° Northeast 472 543 31,000  Level FlightAware ADS-B
Wed 09:45:20 AM 40.5650 -73.9440 49° Northeast 472 543 31,000  Level FlightAware ADS-B
Wed 09:45:57 AM 40.6100 -73.8750 49° Northeast 472 543 31,000  Level FlightAware ADS-B
Wed 09:46:33 AM 40.6540 -73.8090 49° Northeast 472 543 31,000  Level FlightAware ADS-B
Wed 09:47:09 AM 40.6980 -73.7420 49° Northeast 472 543 31,000  Level FlightAware ADS-B
Wed 09:47:43 AM 40.7390 -73.6790 49° Northeast 472 543 31,000  Level FlightAware ADS-B
Wed 09:48:19 AM 40.7830 -73.6130 49° Northeast 472 543 31,000  Level FlightAware ADS-B
Wed 09:48:55 AM 40.8270 -73.5460 49° Northeast 472 543 31,000 -6,000 Level FlightAware ADS-B
Wed 09:49:29 AM 40.9528 -73.3003 49° Northeast 421 484 24,000 -4,723 Descending Boston Center
Wed 09:50:29 AM 41.0267 -73.1883 49° Northeast 408 470 23,600 -508 Descending Boston Center
Wed 09:51:27 AM 41.0878 -73.0569 58° Northeast 408 470 23,000 -303 Descending Boston Center
Wed 09:52:28 AM 41.1469 -72.9253 59° Northeast 408 470 23,000  Level Boston Center
Wed 09:53:29 AM 41.2097 -72.7961 57° Northeast 413 475 23,000  Level Boston Center
Wed 09:54:29 AM 41.2789 -72.6472 58° Northeast 418 481 23,000  Level Boston Center
Wed 09:55:27 AM 41.3397 -72.5119 59° Northeast 418 481 23,000 -50 Level Boston Center
Wed 09:56:28 AM 41.4022 -72.3819 57° Northeast 418 481 22,900 -793 Descending Boston Center
Wed 09:57:28 AM 41.4519 -72.2683 60° Northeast 411 473 21,400 -1,600 Descending Boston Center
Wed 09:58:28 AM 41.5039 -72.1436 61° Northeast 399 459 19,700 -1,736 Descending Boston Center
Wed 09:59:29 AM 41.5514 -72.0183 63° Northeast 378 435 17,900 -1,815 Descending Boston Center
Wed 10:00:27 AM 41.5925 -71.8822 68° East 358 412 16,100 -1,412 Descending Boston Center
Wed 10:01:28 AM 41.6253 -71.7708 68° East 353 406 15,100 -992 Descending Boston Center
Wed 10:02:28 AM 41.6619 -71.6397 69° East 353 406 14,100 -1,008 Descending Boston Center
Wed 10:03:27 AM 41.6964 -71.5225 68° East 343 395 13,100 -958 Descending Boston Center
Wed 10:04:27 AM 41.7350 -71.4081 66° East 338 389 12,200 -942 Descending Boston Center
Wed 10:05:28 AM 41.7797 -71.2986 61° Northeast 324 373 11,200 -595 Descending Boston Center
Wed 10:06:28 AM 41.8206 -71.2061 59° Northeast 324 373 11,000 -99 Descending Boston Center
Wed 10:07:29 AM 41.8692 -71.0908 60° Northeast 318 366 11,000  Level Boston Center
Wed 10:08:31 AM 41.9167 -70.9667 63° Northeast 323 372 11,000  Level KA90
Wed 10:09:31 AM 41.9667 -70.8667 56° Northeast 326 375 11,000 -359 Level KA90
Wed 10:10:28 AM 42.0047 -70.7833 58° Northeast 308 354 10,300 -923 Descending Boston Center
Wed 10:11:28 AM 42.0556 -70.6981 51° Northeast 296 341 9,200 -1,150 Descending Boston Center
Wed 10:12:28 AM 42.1128 -70.6208 45° Northeast 290 334 8,000 -1,190 Descending Boston Center
Wed 10:13:29 AM 42.1814 -70.6106 North 239 275 6,800 -1,289 Descending Boston Center
Wed 10:14:29 AM 42.2503 -70.6114 359° North 239 275 5,400 -1,525 Descending Boston Center
Wed 10:15:27 AM 42.3111 -70.6406 340° North 228 262 3,800 -1,210 Descending Boston Center
Wed 10:16:28 AM 42.3661 -70.6894 327° Northwest 228 262 3,000 -422 Descending Boston Center
Wed 10:18:32 AM 42.3833 -70.8167 280° West 165 190 2,500 -454 Descending KA90
Wed 10:19:33 AM 42.3833 -70.8833 270° West 163 188 1,600 -818 Descending KA90
Wed 10:20:44 AM 42.3667 -70.9500 251° West 123 142 700 -667 Descending KA90
Wed 10:21:39 AM 42.3667 -70.9833 270° West 116 133 200 -545 Descending KA90

Login

Don't have an account? Register now (free) for customized features, flight alerts, and more!